TVF39PQ LGAV-LFPO
Flight info
| Callsign | TVF39PQ |
|---|---|
| Flight time | 2h 59m |
| Altitude | 36000 |
| Route | KOR UL53 IXONI DCT YNN UL611 TUMBO DCT OVVER DCT RODON DCT VAKSU DCT BAXON DCT AOSTA DCT ORSUD DCT MOLUS DCT UNKIR DCT DJL |
| Aircraft | B738/M-SDE2E3FGHIRWXY/LB1 |
Departure
| Time | 2026-05-06 09:24 |
|---|---|
| Airport | Athens Eleftherios Venizelos International Airport (LGAV) |
Arrival
| Time | 2026-05-06 12:24 |
|---|---|
| Airport | Paris-Orly Airport (LFPO) |
| Time | Latitude | Longitude | Altitude | Speed | Heading |
|---|---|---|---|---|---|
| 2026-05-06 08:50 | 37.92990 | 23.94372 | 302 ft | 0 kts | 37° |
| 2026-05-06 09:16 | 37.92985 | 23.94367 | 300 ft | 3 kts | 37° |
| 2026-05-06 09:16 | 37.92970 | 23.94353 | 300 ft | 3 kts | 37° |
| 2026-05-06 09:16 | 37.92955 | 23.94339 | 300 ft | 3 kts | 37° |
| 2026-05-06 09:17 | 37.92941 | 23.94324 | 299 ft | 3 kts | 65° |
| 2026-05-06 09:17 | 37.92940 | 23.94302 | 300 ft | 1 kts | 122° |
| 2026-05-06 09:17 | 37.92940 | 23.94301 | 300 ft | 0 kts | 122° |
| 2026-05-06 09:20 | 37.92938 | 23.94304 | 300 ft | 2 kts | 130° |
| 2026-05-06 09:20 | 37.92915 | 23.94330 | 300 ft | 6 kts | 139° |
| 2026-05-06 09:20 | 37.92876 | 23.94377 | 303 ft | 11 kts | 134° |
| 2026-05-06 09:21 | 37.92823 | 23.94447 | 301 ft | 10 kts | 148° |
| 2026-05-06 09:21 | 37.92759 | 23.94436 | 302 ft | 10 kts | 213° |
| 2026-05-06 09:21 | 37.92701 | 23.94384 | 303 ft | 11 kts | 216° |
| 2026-05-06 09:21 | 37.92642 | 23.94326 | 305 ft | 11 kts | 218° |
| 2026-05-06 09:22 | 37.92582 | 23.94283 | 304 ft | 8 kts | 184° |
| 2026-05-06 09:22 | 37.92542 | 23.94318 | 305 ft | 7 kts | 129° |
| 2026-05-06 09:22 | 37.92530 | 23.94336 | 305 ft | 0 kts | 128° |
| 2026-05-06 09:23 | 37.92526 | 23.94343 | 306 ft | 6 kts | 127° |
| 2026-05-06 09:23 | 37.92491 | 23.94429 | 307 ft | 14 kts | 93° |
| 2026-05-06 09:23 | 37.92540 | 23.94503 | 306 ft | 12 kts | 37° |
| 2026-05-06 09:23 | 37.92845 | 23.94793 | 300 ft | 99 kts | 37° |
| 2026-05-06 09:24 | 37.93606 | 23.95510 | 320 ft | 169 kts | 38° |
| 2026-05-06 09:24 | 37.94634 | 23.96473 | 928 ft | 195 kts | 37° |
| 2026-05-06 09:24 | 37.95760 | 23.97476 | 1725 ft | 202 kts | 34° |
| 2026-05-06 09:24 | 37.96918 | 23.98533 | 2480 ft | 206 kts | 39° |
| 2026-05-06 09:25 | 37.98019 | 23.99687 | 3223 ft | 206 kts | 38° |
| 2026-05-06 09:25 | 37.99147 | 24.00894 | 3721 ft | 220 kts | 39° |
| 2026-05-06 09:25 | 38.00330 | 24.02180 | 4239 ft | 225 kts | 39° |
| 2026-05-06 09:25 | 38.01504 | 24.03458 | 4820 ft | 226 kts | 39° |
| 2026-05-06 09:26 | 38.02719 | 24.04742 | 5301 ft | 230 kts | 32° |
| 2026-05-06 09:26 | 38.04215 | 24.05342 | 5794 ft | 227 kts | 357° |
| 2026-05-06 09:26 | 38.05699 | 24.04800 | 6349 ft | 224 kts | 326° |
| 2026-05-06 09:26 | 38.06854 | 24.03447 | 6887 ft | 223 kts | 310° |
| 2026-05-06 09:27 | 38.07804 | 24.01908 | 7386 ft | 225 kts | 307° |
| 2026-05-06 09:27 | 38.08737 | 24.00309 | 7965 ft | 226 kts | 306° |
| 2026-05-06 09:27 | 38.09677 | 23.98688 | 8530 ft | 229 kts | 307° |
| 2026-05-06 09:27 | 38.10626 | 23.97053 | 9180 ft | 231 kts | 307° |
| 2026-05-06 09:28 | 38.11583 | 23.95409 | 9958 ft | 232 kts | 307° |
| 2026-05-06 09:28 | 38.12542 | 23.93761 | 10636 ft | 232 kts | 307° |
| 2026-05-06 09:28 | 38.13507 | 23.92111 | 11245 ft | 235 kts | 307° |
| 2026-05-06 09:28 | 38.14492 | 23.90433 | 11879 ft | 238 kts | 307° |
| 2026-05-06 09:29 | 38.15482 | 23.88747 | 12564 ft | 239 kts | 308° |
| 2026-05-06 09:29 | 38.16480 | 23.87047 | 13227 ft | 241 kts | 308° |
| 2026-05-06 09:29 | 38.17488 | 23.85332 | 13898 ft | 243 kts | 308° |
| 2026-05-06 09:29 | 38.18503 | 23.83608 | 14525 ft | 244 kts | 308° |
| 2026-05-06 09:30 | 38.19518 | 23.81882 | 15152 ft | 243 kts | 308° |
| 2026-05-06 09:30 | 38.20531 | 23.80159 | 15784 ft | 243 kts | 308° |
| 2026-05-06 09:30 | 38.21542 | 23.78438 | 16428 ft | 243 kts | 308° |
| 2026-05-06 09:30 | 38.22555 | 23.76714 | 17041 ft | 244 kts | 308° |
| 2026-05-06 09:31 | 38.23573 | 23.74984 | 17669 ft | 244 kts | 308° |
| 2026-05-06 09:31 | 38.24589 | 23.73253 | 18289 ft | 244 kts | 308° |
| 2026-05-06 09:31 | 38.25608 | 23.71516 | 18826 ft | 246 kts | 308° |
| 2026-05-06 09:31 | 38.26638 | 23.69762 | 19314 ft | 248 kts | 308° |
| 2026-05-06 09:32 | 38.27675 | 23.67993 | 19803 ft | 250 kts | 308° |
| 2026-05-06 09:32 | 38.28721 | 23.66210 | 20300 ft | 252 kts | 308° |
| 2026-05-06 09:32 | 38.29773 | 23.64414 | 20802 ft | 254 kts | 308° |
| 2026-05-06 09:32 | 38.30821 | 23.62625 | 21275 ft | 256 kts | 308° |
| 2026-05-06 09:33 | 38.31892 | 23.60794 | 21755 ft | 259 kts | 308° |
| 2026-05-06 09:33 | 38.32970 | 23.58951 | 22236 ft | 261 kts | 308° |
| 2026-05-06 09:33 | 38.34059 | 23.57089 | 22708 ft | 263 kts | 308° |
| 2026-05-06 09:33 | 38.35155 | 23.55213 | 23179 ft | 265 kts | 308° |
| 2026-05-06 09:34 | 38.36260 | 23.53322 | 23635 ft | 268 kts | 308° |
| 2026-05-06 09:34 | 38.37397 | 23.51375 | 23794 ft | 281 kts | 308° |
| 2026-05-06 09:34 | 38.38578 | 23.49352 | 24065 ft | 287 kts | 308° |
| 2026-05-06 09:34 | 38.39771 | 23.47306 | 24506 ft | 287 kts | 308° |
| 2026-05-06 09:35 | 38.40960 | 23.45263 | 24930 ft | 287 kts | 308° |
| 2026-05-06 09:35 | 38.42156 | 23.43207 | 25280 ft | 290 kts | 308° |
| 2026-05-06 09:35 | 38.43364 | 23.41131 | 25639 ft | 293 kts | 308° |
| 2026-05-06 09:35 | 38.44580 | 23.39039 | 26053 ft | 294 kts | 308° |
| 2026-05-06 09:36 | 38.45805 | 23.36930 | 26476 ft | 296 kts | 308° |
| 2026-05-06 09:36 | 38.47032 | 23.34818 | 26896 ft | 296 kts | 308° |
| 2026-05-06 09:36 | 38.48265 | 23.32693 | 27206 ft | 302 kts | 308° |
| 2026-05-06 09:36 | 38.49517 | 23.30536 | 27379 ft | 311 kts | 308° |
| 2026-05-06 09:37 | 38.50819 | 23.28291 | 27585 ft | 318 kts | 308° |
| 2026-05-06 09:37 | 38.52144 | 23.26003 | 27904 ft | 323 kts | 308° |
| 2026-05-06 09:37 | 38.53500 | 23.23660 | 28316 ft | 324 kts | 308° |
| 2026-05-06 09:37 | 38.54816 | 23.21385 | 28872 ft | 321 kts | 308° |
| 2026-05-06 09:38 | 38.56136 | 23.19099 | 29409 ft | 319 kts | 308° |
| 2026-05-06 09:38 | 38.57450 | 23.16822 | 29851 ft | 318 kts | 308° |
| 2026-05-06 09:38 | 38.58763 | 23.14546 | 30244 ft | 318 kts | 307° |
| 2026-05-06 09:38 | 38.60072 | 23.12276 | 30623 ft | 317 kts | 307° |
| 2026-05-06 09:39 | 38.61387 | 23.09995 | 30821 ft | 322 kts | 307° |
| 2026-05-06 09:39 | 38.64112 | 23.05264 | 30987 ft | 338 kts | 307° |
| 2026-05-06 09:39 | 38.65519 | 23.02818 | 31150 ft | 343 kts | 307° |
| 2026-05-06 09:40 | 38.66937 | 23.00348 | 31408 ft | 345 kts | 307° |
| 2026-05-06 09:40 | 38.68358 | 22.97868 | 31771 ft | 344 kts | 307° |
| 2026-05-06 09:40 | 38.70703 | 22.93777 | 32409 ft | 342 kts | 307° |
| 2026-05-06 09:41 | 38.72109 | 22.91324 | 32720 ft | 342 kts | 307° |
| 2026-05-06 09:41 | 38.73534 | 22.88835 | 32784 ft | 350 kts | 307° |
| 2026-05-06 09:41 | 38.76468 | 22.83708 | 32939 ft | 364 kts | 307° |
| 2026-05-06 09:42 | 38.77973 | 22.81076 | 33053 ft | 369 kts | 307° |
| 2026-05-06 09:42 | 38.79495 | 22.78412 | 33266 ft | 371 kts | 307° |
| 2026-05-06 09:42 | 38.81021 | 22.75735 | 33487 ft | 373 kts | 306° |
| 2026-05-06 09:42 | 38.82553 | 22.73048 | 33770 ft | 373 kts | 306° |
| 2026-05-06 09:43 | 38.84077 | 22.70370 | 34130 ft | 371 kts | 306° |
| 2026-05-06 09:43 | 38.85595 | 22.67702 | 34401 ft | 369 kts | 306° |
| 2026-05-06 09:43 | 38.87105 | 22.65044 | 34615 ft | 369 kts | 306° |
| 2026-05-06 09:43 | 38.88615 | 22.62386 | 34857 ft | 367 kts | 306° |
| 2026-05-06 09:44 | 38.90117 | 22.59739 | 35099 ft | 366 kts | 306° |
| 2026-05-06 09:44 | 38.91616 | 22.57095 | 35307 ft | 366 kts | 306° |
| 2026-05-06 09:44 | 38.93115 | 22.54450 | 35454 ft | 367 kts | 306° |
| 2026-05-06 09:44 | 38.94624 | 22.51783 | 35492 ft | 371 kts | 306° |
| 2026-05-06 09:45 | 38.97690 | 22.46360 | 35572 ft | 379 kts | 306° |
| 2026-05-06 09:45 | 39.00816 | 22.40821 | 35635 ft | 387 kts | 306° |
| 2026-05-06 09:46 | 39.04004 | 22.35162 | 35720 ft | 394 kts | 306° |
| 2026-05-06 09:46 | 39.07251 | 22.29390 | 35782 ft | 402 kts | 306° |
| 2026-05-06 09:47 | 39.10552 | 22.23509 | 35840 ft | 409 kts | 306° |
| 2026-05-06 09:47 | 39.13904 | 22.17528 | 35962 ft | 413 kts | 305° |
| 2026-05-06 09:48 | 39.17262 | 22.11525 | 36070 ft | 418 kts | 305° |
| 2026-05-06 09:48 | 39.20686 | 22.05390 | 36096 ft | 424 kts | 305° |
| 2026-05-06 09:49 | 39.24146 | 21.99181 | 36075 ft | 427 kts | 305° |
| 2026-05-06 09:49 | 39.27622 | 21.92930 | 36085 ft | 428 kts | 305° |
| 2026-05-06 09:50 | 39.31093 | 21.86677 | 36079 ft | 429 kts | 305° |
| 2026-05-06 09:50 | 39.34560 | 21.80417 | 36076 ft | 428 kts | 305° |
| 2026-05-06 09:51 | 39.37998 | 21.74199 | 36078 ft | 428 kts | 304° |
| 2026-05-06 09:51 | 39.41450 | 21.67943 | 36091 ft | 427 kts | 304° |
| 2026-05-06 09:52 | 39.44900 | 21.61678 | 36095 ft | 427 kts | 304° |
| 2026-05-06 09:52 | 39.48338 | 21.55423 | 36076 ft | 426 kts | 304° |
| 2026-05-06 09:53 | 39.51773 | 21.49161 | 36084 ft | 426 kts | 304° |
| 2026-05-06 09:53 | 39.55196 | 21.42908 | 36095 ft | 425 kts | 304° |
| 2026-05-06 09:54 | 39.58614 | 21.36652 | 36111 ft | 425 kts | 304° |
| 2026-05-06 09:54 | 39.62028 | 21.30391 | 36101 ft | 425 kts | 304° |
| 2026-05-06 09:55 | 39.65430 | 21.24138 | 36106 ft | 424 kts | 304° |
| 2026-05-06 09:55 | 39.68824 | 21.17892 | 36105 ft | 423 kts | 304° |
| 2026-05-06 09:56 | 39.72186 | 21.11691 | 36113 ft | 423 kts | 304° |
| 2026-05-06 09:56 | 39.75575 | 21.05424 | 36117 ft | 424 kts | 304° |
| 2026-05-06 09:57 | 39.78966 | 20.99143 | 36131 ft | 424 kts | 304° |
| 2026-05-06 09:57 | 39.82360 | 20.92847 | 36141 ft | 426 kts | 304° |
| 2026-05-06 09:58 | 39.85765 | 20.86515 | 36131 ft | 427 kts | 304° |
| 2026-05-06 09:58 | 39.89170 | 20.80171 | 36123 ft | 427 kts | 303° |
| 2026-05-06 09:59 | 39.92572 | 20.73823 | 36109 ft | 427 kts | 304° |
| 2026-05-06 09:59 | 39.95966 | 20.67481 | 36145 ft | 426 kts | 303° |
| 2026-05-06 10:00 | 39.99331 | 20.61161 | 36125 ft | 427 kts | 303° |
| 2026-05-06 10:00 | 40.02723 | 20.54790 | 36119 ft | 427 kts | 303° |
| 2026-05-06 10:01 | 40.06196 | 20.48492 | 36109 ft | 428 kts | 309° |
| 2026-05-06 10:01 | 40.10658 | 20.43355 | 36139 ft | 429 kts | 321° |
| 2026-05-06 10:02 | 40.15489 | 20.38784 | 36125 ft | 432 kts | 321° |
| 2026-05-06 10:02 | 40.20345 | 20.34161 | 36108 ft | 432 kts | 321° |
| 2026-05-06 10:03 | 40.25175 | 20.29512 | 36116 ft | 431 kts | 321° |
| 2026-05-06 10:03 | 40.30007 | 20.24837 | 36117 ft | 432 kts | 321° |
| 2026-05-06 10:04 | 40.34847 | 20.20145 | 36109 ft | 433 kts | 321° |
| 2026-05-06 10:04 | 40.39696 | 20.15436 | 36102 ft | 434 kts | 321° |
| 2026-05-06 10:05 | 40.44552 | 20.10713 | 36101 ft | 435 kts | 321° |
| 2026-05-06 10:05 | 40.49407 | 20.05982 | 36102 ft | 435 kts | 321° |
| 2026-05-06 10:06 | 40.54269 | 20.01235 | 36092 ft | 436 kts | 321° |
| 2026-05-06 10:06 | 40.59128 | 19.96478 | 36112 ft | 435 kts | 321° |
| 2026-05-06 10:07 | 40.63979 | 19.91716 | 36098 ft | 434 kts | 321° |
| 2026-05-06 10:07 | 40.68825 | 19.86948 | 36089 ft | 434 kts | 321° |
| 2026-05-06 10:08 | 40.73660 | 19.82182 | 36107 ft | 435 kts | 321° |
| 2026-05-06 10:08 | 40.78513 | 19.77388 | 36104 ft | 436 kts | 320° |
| 2026-05-06 10:09 | 40.83379 | 19.72574 | 36113 ft | 438 kts | 320° |
| 2026-05-06 10:09 | 40.88262 | 19.67734 | 36110 ft | 439 kts | 320° |
| 2026-05-06 10:10 | 40.93128 | 19.62903 | 36114 ft | 440 kts | 320° |
| 2026-05-06 10:10 | 40.98023 | 19.58033 | 36099 ft | 440 kts | 320° |
| 2026-05-06 10:11 | 41.02907 | 19.53165 | 36114 ft | 439 kts | 320° |
| 2026-05-06 10:11 | 41.07788 | 19.48290 | 36107 ft | 439 kts | 320° |
| 2026-05-06 10:12 | 41.12660 | 19.43415 | 36104 ft | 439 kts | 320° |
| 2026-05-06 10:12 | 41.17527 | 19.38535 | 36116 ft | 438 kts | 320° |
| 2026-05-06 10:13 | 41.22396 | 19.33645 | 36107 ft | 439 kts | 320° |
| 2026-05-06 10:13 | 41.27257 | 19.28752 | 36114 ft | 438 kts | 320° |
| 2026-05-06 10:14 | 41.32122 | 19.23847 | 36106 ft | 438 kts | 320° |
| 2026-05-06 10:14 | 41.36980 | 19.18938 | 36112 ft | 438 kts | 320° |
| 2026-05-06 10:15 | 41.41801 | 19.14058 | 36124 ft | 438 kts | 320° |
| 2026-05-06 10:15 | 41.46654 | 19.09136 | 36109 ft | 438 kts | 320° |
| 2026-05-06 10:16 | 41.51503 | 19.04192 | 36113 ft | 438 kts | 320° |
| 2026-05-06 10:16 | 41.56347 | 18.99237 | 36112 ft | 438 kts | 320° |
| 2026-05-06 10:17 | 41.61185 | 18.94279 | 36107 ft | 439 kts | 320° |
| 2026-05-06 10:17 | 41.66028 | 18.89308 | 36117 ft | 439 kts | 320° |
| 2026-05-06 10:18 | 41.70868 | 18.84330 | 36107 ft | 439 kts | 319° |
| 2026-05-06 10:18 | 41.75702 | 18.79349 | 36109 ft | 438 kts | 319° |
| 2026-05-06 10:19 | 41.80538 | 18.74356 | 36101 ft | 439 kts | 319° |
| 2026-05-06 10:19 | 41.85379 | 18.69347 | 36106 ft | 439 kts | 319° |
| 2026-05-06 10:20 | 41.90225 | 18.64324 | 36118 ft | 440 kts | 319° |
| 2026-05-06 10:20 | 41.95073 | 18.59289 | 36106 ft | 441 kts | 319° |
| 2026-05-06 10:21 | 41.99910 | 18.54223 | 36098 ft | 440 kts | 316° |
| 2026-05-06 10:21 | 42.03875 | 18.48150 | 36108 ft | 434 kts | 302° |
| 2026-05-06 10:22 | 42.07284 | 18.41422 | 36103 ft | 434 kts | 301° |
| 2026-05-06 10:22 | 42.10689 | 18.34688 | 36089 ft | 436 kts | 301° |
| 2026-05-06 10:23 | 42.14117 | 18.27957 | 36093 ft | 436 kts | 301° |
| 2026-05-06 10:23 | 42.17554 | 18.21224 | 36100 ft | 436 kts | 301° |
| 2026-05-06 10:24 | 42.20990 | 18.14489 | 36088 ft | 436 kts | 301° |
| 2026-05-06 10:24 | 42.24420 | 18.07749 | 36098 ft | 436 kts | 301° |
| 2026-05-06 10:25 | 42.27847 | 18.00999 | 36090 ft | 436 kts | 301° |
| 2026-05-06 10:25 | 42.31269 | 17.94245 | 36087 ft | 435 kts | 301° |
| 2026-05-06 10:26 | 42.34684 | 17.87488 | 36079 ft | 435 kts | 301° |
| 2026-05-06 10:26 | 42.38073 | 17.80767 | 36079 ft | 435 kts | 301° |
| 2026-05-06 10:27 | 42.41481 | 17.73994 | 36083 ft | 435 kts | 301° |
| 2026-05-06 10:27 | 42.44334 | 17.68312 | 36075 ft | 435 kts | 301° |
| 2026-05-06 10:28 | 42.47713 | 17.61567 | 36077 ft | 436 kts | 301° |
| 2026-05-06 10:28 | 42.51111 | 17.54771 | 36072 ft | 436 kts | 301° |
| 2026-05-06 10:29 | 42.54509 | 17.47958 | 36069 ft | 436 kts | 301° |
| 2026-05-06 10:29 | 42.57898 | 17.41149 | 36066 ft | 436 kts | 301° |
| 2026-05-06 10:30 | 42.61285 | 17.34328 | 36070 ft | 436 kts | 300° |
| 2026-05-06 10:30 | 42.64670 | 17.27494 | 36059 ft | 436 kts | 300° |
| 2026-05-06 10:31 | 42.68048 | 17.20660 | 36060 ft | 435 kts | 300° |
| 2026-05-06 10:31 | 42.71397 | 17.13870 | 36051 ft | 435 kts | 300° |
| 2026-05-06 10:32 | 42.74764 | 17.07027 | 36056 ft | 435 kts | 300° |
| 2026-05-06 10:32 | 42.78124 | 17.00182 | 36048 ft | 435 kts | 300° |
| 2026-05-06 10:33 | 42.81483 | 16.93324 | 36049 ft | 435 kts | 300° |
| 2026-05-06 10:33 | 42.84836 | 16.86461 | 36041 ft | 435 kts | 300° |
| 2026-05-06 10:34 | 42.88184 | 16.79594 | 36041 ft | 435 kts | 300° |
| 2026-05-06 10:34 | 42.91506 | 16.72763 | 36040 ft | 435 kts | 300° |
| 2026-05-06 10:35 | 42.94848 | 16.65876 | 36048 ft | 436 kts | 300° |
| 2026-05-06 10:35 | 42.98191 | 16.58971 | 36042 ft | 436 kts | 300° |
| 2026-05-06 10:36 | 43.01531 | 16.52056 | 36036 ft | 436 kts | 300° |
| 2026-05-06 10:36 | 43.04867 | 16.45132 | 36034 ft | 436 kts | 300° |
| 2026-05-06 10:37 | 43.08201 | 16.38198 | 36031 ft | 436 kts | 300° |
| 2026-05-06 10:37 | 43.11532 | 16.31253 | 36036 ft | 437 kts | 299° |
| 2026-05-06 10:38 | 43.14862 | 16.24294 | 36013 ft | 437 kts | 299° |
| 2026-05-06 10:38 | 43.18189 | 16.17324 | 36010 ft | 437 kts | 299° |
| 2026-05-06 10:39 | 43.21513 | 16.10345 | 36010 ft | 437 kts | 299° |
| 2026-05-06 10:39 | 43.24833 | 16.03357 | 36003 ft | 437 kts | 299° |
| 2026-05-06 10:40 | 43.28147 | 15.96365 | 36014 ft | 437 kts | 299° |
| 2026-05-06 10:40 | 43.31441 | 15.89399 | 36016 ft | 438 kts | 298° |
| 2026-05-06 10:41 | 43.34753 | 15.82379 | 36005 ft | 437 kts | 298° |
| 2026-05-06 10:41 | 43.38055 | 15.75363 | 36000 ft | 437 kts | 298° |
| 2026-05-06 10:42 | 43.41348 | 15.68349 | 35999 ft | 437 kts | 298° |
| 2026-05-06 10:42 | 43.44639 | 15.61324 | 36000 ft | 437 kts | 298° |
| 2026-05-06 10:43 | 43.47927 | 15.54285 | 35998 ft | 437 kts | 298° |
| 2026-05-06 10:44 | 43.52851 | 15.43715 | 35994 ft | 437 kts | 298° |
| 2026-05-06 10:44 | 43.56109 | 15.36702 | 35998 ft | 437 kts | 298° |
| 2026-05-06 10:45 | 43.59385 | 15.29629 | 36006 ft | 438 kts | 298° |
| 2026-05-06 10:45 | 43.62662 | 15.22542 | 36005 ft | 438 kts | 297° |
| 2026-05-06 10:46 | 43.65932 | 15.15449 | 35985 ft | 438 kts | 297° |
| 2026-05-06 10:46 | 43.69198 | 15.08349 | 35989 ft | 437 kts | 297° |
| 2026-05-06 10:47 | 43.72455 | 15.01253 | 35985 ft | 437 kts | 297° |
| 2026-05-06 10:47 | 43.75707 | 14.94148 | 35984 ft | 437 kts | 297° |
| 2026-05-06 10:48 | 43.78952 | 14.87041 | 35987 ft | 437 kts | 297° |
| 2026-05-06 10:48 | 43.82197 | 14.79916 | 35984 ft | 438 kts | 297° |
| 2026-05-06 10:49 | 43.85442 | 14.72774 | 35980 ft | 438 kts | 297° |
| 2026-05-06 10:49 | 43.88681 | 14.65629 | 35980 ft | 438 kts | 297° |
| 2026-05-06 10:50 | 43.91920 | 14.58466 | 35981 ft | 438 kts | 296° |
| 2026-05-06 10:50 | 43.95154 | 14.51295 | 35982 ft | 438 kts | 296° |
| 2026-05-06 10:51 | 43.98386 | 14.44112 | 35974 ft | 439 kts | 296° |
| 2026-05-06 10:51 | 44.01615 | 14.36918 | 35974 ft | 439 kts | 296° |
| 2026-05-06 10:52 | 44.04819 | 14.29761 | 35975 ft | 439 kts | 296° |
| 2026-05-06 10:52 | 44.08041 | 14.22548 | 35975 ft | 439 kts | 296° |
| 2026-05-06 10:53 | 44.11255 | 14.15331 | 35984 ft | 439 kts | 296° |
| 2026-05-06 10:53 | 44.14463 | 14.08112 | 35974 ft | 438 kts | 296° |
| 2026-05-06 10:54 | 44.17663 | 14.00893 | 35972 ft | 438 kts | 296° |
| 2026-05-06 10:54 | 44.20855 | 13.93676 | 35969 ft | 437 kts | 296° |
| 2026-05-06 10:55 | 44.24041 | 13.86450 | 35984 ft | 437 kts | 295° |
| 2026-05-06 10:55 | 44.27218 | 13.79228 | 35973 ft | 437 kts | 295° |
| 2026-05-06 10:56 | 44.30372 | 13.72039 | 35987 ft | 438 kts | 295° |
| 2026-05-06 10:56 | 44.33560 | 13.64746 | 35933 ft | 441 kts | 295° |
| 2026-05-06 10:57 | 44.36726 | 13.57520 | 35972 ft | 433 kts | 295° |
| 2026-05-06 10:57 | 44.39858 | 13.50311 | 35968 ft | 434 kts | 295° |
| 2026-05-06 10:58 | 44.42593 | 13.42866 | 35951 ft | 426 kts | 284° |
| 2026-05-06 10:58 | 44.44576 | 13.35038 | 35945 ft | 428 kts | 283° |
| 2026-05-06 10:59 | 44.46548 | 13.27159 | 35936 ft | 429 kts | 283° |
| 2026-05-06 10:59 | 44.48541 | 13.19284 | 35946 ft | 430 kts | 284° |
| 2026-05-06 11:00 | 44.50546 | 13.11394 | 35934 ft | 430 kts | 284° |
| 2026-05-06 11:00 | 44.52542 | 13.03539 | 35927 ft | 430 kts | 284° |
| 2026-05-06 11:01 | 44.54545 | 12.95626 | 35936 ft | 431 kts | 284° |
| 2026-05-06 11:01 | 44.56546 | 12.87698 | 35952 ft | 432 kts | 283° |
| 2026-05-06 11:02 | 44.58545 | 12.79746 | 35922 ft | 431 kts | 283° |
| 2026-05-06 11:02 | 44.60534 | 12.71814 | 35918 ft | 430 kts | 283° |
| 2026-05-06 11:03 | 44.62510 | 12.63901 | 35932 ft | 429 kts | 283° |
| 2026-05-06 11:03 | 44.64475 | 12.56000 | 35916 ft | 428 kts | 283° |
| 2026-05-06 11:04 | 44.66434 | 12.48100 | 35931 ft | 428 kts | 283° |
| 2026-05-06 11:04 | 44.68381 | 12.40227 | 35928 ft | 421 kts | 283° |
| 2026-05-06 11:05 | 44.70283 | 12.32517 | 35916 ft | 415 kts | 283° |
| 2026-05-06 11:05 | 44.72158 | 12.24876 | 35923 ft | 412 kts | 282° |
| 2026-05-06 11:06 | 44.74004 | 12.17320 | 35950 ft | 411 kts | 282° |
| 2026-05-06 11:06 | 44.75855 | 12.09720 | 35933 ft | 410 kts | 282° |
| 2026-05-06 11:07 | 44.77700 | 12.02119 | 35931 ft | 412 kts | 282° |
| 2026-05-06 11:07 | 44.79548 | 11.94482 | 35917 ft | 412 kts | 282° |
| 2026-05-06 11:08 | 44.81390 | 11.86852 | 35921 ft | 411 kts | 282° |
| 2026-05-06 11:08 | 44.83225 | 11.79226 | 35922 ft | 411 kts | 282° |
| 2026-05-06 11:09 | 44.85055 | 11.71587 | 35928 ft | 412 kts | 281° |
| 2026-05-06 11:09 | 44.86885 | 11.63924 | 35933 ft | 413 kts | 281° |
| 2026-05-06 11:10 | 44.88720 | 11.56208 | 35941 ft | 417 kts | 282° |
| 2026-05-06 11:10 | 44.90559 | 11.48450 | 35940 ft | 420 kts | 281° |
| 2026-05-06 11:11 | 44.92409 | 11.40632 | 35943 ft | 421 kts | 281° |
| 2026-05-06 11:11 | 44.94262 | 11.32770 | 35902 ft | 422 kts | 281° |
| 2026-05-06 11:12 | 44.96107 | 11.24915 | 35941 ft | 422 kts | 281° |
| 2026-05-06 11:12 | 44.97957 | 11.17000 | 35927 ft | 425 kts | 281° |
| 2026-05-06 11:13 | 44.99788 | 11.09158 | 35899 ft | 415 kts | 281° |
| 2026-05-06 11:13 | 45.01579 | 11.01466 | 35904 ft | 409 kts | 281° |
| 2026-05-06 11:14 | 45.03351 | 10.93788 | 35924 ft | 414 kts | 281° |
| 2026-05-06 11:14 | 45.05148 | 10.85963 | 35899 ft | 421 kts | 281° |
| 2026-05-06 11:15 | 45.06954 | 10.78110 | 35931 ft | 419 kts | 281° |
| 2026-05-06 11:15 | 45.08736 | 10.70336 | 35911 ft | 418 kts | 281° |
| 2026-05-06 11:16 | 45.10519 | 10.62529 | 35896 ft | 416 kts | 281° |
| 2026-05-06 11:16 | 45.12285 | 10.54760 | 35895 ft | 413 kts | 281° |
| 2026-05-06 11:17 | 45.14038 | 10.47021 | 35890 ft | 412 kts | 281° |
| 2026-05-06 11:17 | 45.15776 | 10.39318 | 35911 ft | 410 kts | 280° |
| 2026-05-06 11:18 | 45.17215 | 10.32917 | 35889 ft | 409 kts | 280° |
| 2026-05-06 11:18 | 45.18937 | 10.25235 | 35882 ft | 408 kts | 280° |
| 2026-05-06 11:19 | 45.20650 | 10.17567 | 35883 ft | 407 kts | 280° |
| 2026-05-06 11:19 | 45.22353 | 10.09909 | 35882 ft | 407 kts | 280° |
| 2026-05-06 11:20 | 45.24341 | 10.00942 | 35878 ft | 408 kts | 279° |
| 2026-05-06 11:20 | 45.25754 | 9.94541 | 35875 ft | 410 kts | 279° |
| 2026-05-06 11:21 | 45.27457 | 9.86803 | 35865 ft | 411 kts | 279° |
| 2026-05-06 11:21 | 45.29161 | 9.79031 | 35884 ft | 413 kts | 279° |
| 2026-05-06 11:22 | 45.30868 | 9.71222 | 35916 ft | 414 kts | 279° |
| 2026-05-06 11:22 | 45.32563 | 9.63434 | 35957 ft | 416 kts | 279° |
| 2026-05-06 11:23 | 45.34282 | 9.55494 | 35981 ft | 424 kts | 279° |
| 2026-05-06 11:23 | 45.36026 | 9.47416 | 35987 ft | 429 kts | 279° |
| 2026-05-06 11:24 | 45.37776 | 9.39299 | 35989 ft | 430 kts | 279° |
| 2026-05-06 11:24 | 45.38652 | 9.35221 | 35854 ft | 430 kts | 279° |
| 2026-05-06 11:24 | 45.39525 | 9.31150 | 35896 ft | 431 kts | 279° |
| 2026-05-06 11:25 | 45.41271 | 9.22974 | 35868 ft | 432 kts | 279° |
| 2026-05-06 11:25 | 45.43013 | 9.14790 | 35860 ft | 432 kts | 279° |
| 2026-05-06 11:26 | 45.44746 | 9.06611 | 35853 ft | 431 kts | 279° |
| 2026-05-06 11:26 | 45.46471 | 8.98440 | 35852 ft | 430 kts | 279° |
| 2026-05-06 11:27 | 45.48190 | 8.90257 | 35859 ft | 432 kts | 279° |
| 2026-05-06 11:27 | 45.49911 | 8.82027 | 35831 ft | 434 kts | 279° |
| 2026-05-06 11:28 | 45.51629 | 8.73795 | 35834 ft | 433 kts | 279° |
| 2026-05-06 11:28 | 45.53328 | 8.65614 | 35827 ft | 432 kts | 279° |
| 2026-05-06 11:29 | 45.55028 | 8.57396 | 35844 ft | 432 kts | 279° |
| 2026-05-06 11:29 | 45.56723 | 8.49160 | 35843 ft | 432 kts | 279° |
| 2026-05-06 11:30 | 45.58415 | 8.40912 | 35848 ft | 433 kts | 279° |
| 2026-05-06 11:30 | 45.60100 | 8.32662 | 35848 ft | 433 kts | 279° |
| 2026-05-06 11:31 | 45.61782 | 8.24396 | 35847 ft | 433 kts | 279° |
| 2026-05-06 11:31 | 45.63459 | 8.16115 | 35844 ft | 433 kts | 279° |
| 2026-05-06 11:32 | 45.65114 | 8.07936 | 35853 ft | 424 kts | 279° |
| 2026-05-06 11:32 | 45.66741 | 7.99830 | 35760 ft | 426 kts | 279° |
| 2026-05-06 11:32 | 45.67550 | 7.95768 | 35563 ft | 435 kts | 279° |
| 2026-05-06 11:33 | 45.68381 | 7.91580 | 35402 ft | 442 kts | 279° |
| 2026-05-06 11:33 | 45.69227 | 7.87327 | 35214 ft | 446 kts | 279° |
| 2026-05-06 11:33 | 45.70078 | 7.83056 | 35097 ft | 447 kts | 279° |
| 2026-05-06 11:33 | 45.70934 | 7.78763 | 34919 ft | 450 kts | 279° |
| 2026-05-06 11:34 | 45.71792 | 7.74447 | 34750 ft | 452 kts | 279° |
| 2026-05-06 11:34 | 45.72648 | 7.70121 | 34571 ft | 453 kts | 279° |
| 2026-05-06 11:34 | 45.73507 | 7.65771 | 34391 ft | 454 kts | 279° |
| 2026-05-06 11:34 | 45.74361 | 7.61443 | 34188 ft | 449 kts | 279° |
| 2026-05-06 11:35 | 45.75204 | 7.57167 | 34042 ft | 445 kts | 279° |
| 2026-05-06 11:35 | 45.76040 | 7.52887 | 33914 ft | 446 kts | 279° |
| 2026-05-06 11:35 | 45.76876 | 7.48605 | 33899 ft | 446 kts | 279° |
| 2026-05-06 11:36 | 45.78589 | 7.40050 | 33881 ft | 451 kts | 284° |
| 2026-05-06 11:36 | 45.80011 | 7.35973 | 33870 ft | 465 kts | 297° |
| 2026-05-06 11:36 | 45.82033 | 7.32308 | 33883 ft | 474 kts | 308° |
| 2026-05-06 11:36 | 45.84581 | 7.29246 | 33887 ft | 481 kts | 319° |
| 2026-05-06 11:37 | 45.87355 | 7.26542 | 33876 ft | 481 kts | 320° |
| 2026-05-06 11:37 | 45.92860 | 7.21200 | 33868 ft | 481 kts | 318° |
| 2026-05-06 11:38 | 45.98306 | 7.15662 | 33869 ft | 479 kts | 318° |
| 2026-05-06 11:38 | 46.03732 | 7.10078 | 33871 ft | 480 kts | 318° |
| 2026-05-06 11:39 | 46.09171 | 7.04477 | 33881 ft | 481 kts | 318° |
| 2026-05-06 11:39 | 46.14612 | 6.98869 | 33863 ft | 481 kts | 318° |
| 2026-05-06 11:40 | 46.20025 | 6.93285 | 33891 ft | 476 kts | 319° |
| 2026-05-06 11:40 | 46.25433 | 6.87654 | 33903 ft | 483 kts | 318° |
| 2026-05-06 11:41 | 46.30915 | 6.81964 | 33882 ft | 485 kts | 319° |
| 2026-05-06 11:41 | 46.36382 | 6.76282 | 33886 ft | 481 kts | 319° |
| 2026-05-06 11:42 | 46.41776 | 6.70600 | 33888 ft | 476 kts | 315° |
| 2026-05-06 11:42 | 46.46178 | 6.63655 | 33901 ft | 462 kts | 297° |
| 2026-05-06 11:43 | 46.49383 | 6.55616 | 33891 ft | 461 kts | 293° |
| 2026-05-06 11:43 | 46.52510 | 6.47501 | 33896 ft | 460 kts | 294° |
| 2026-05-06 11:44 | 46.57266 | 6.35335 | 33893 ft | 461 kts | 295° |
| 2026-05-06 11:44 | 46.60443 | 6.27246 | 33906 ft | 460 kts | 295° |
| 2026-05-06 11:45 | 46.63590 | 6.19208 | 33916 ft | 460 kts | 294° |
| 2026-05-06 11:45 | 46.66745 | 6.11118 | 33904 ft | 459 kts | 294° |
| 2026-05-06 11:46 | 46.69894 | 6.03019 | 33916 ft | 460 kts | 295° |
| 2026-05-06 11:46 | 46.73041 | 5.94904 | 33919 ft | 460 kts | 295° |
| 2026-05-06 11:47 | 46.76181 | 5.86780 | 33914 ft | 460 kts | 295° |
| 2026-05-06 11:47 | 46.79316 | 5.78649 | 33916 ft | 460 kts | 295° |
| 2026-05-06 11:48 | 46.82873 | 5.70820 | 33933 ft | 470 kts | 309° |
| 2026-05-06 11:48 | 46.87638 | 5.64181 | 33909 ft | 475 kts | 314° |
| 2026-05-06 11:49 | 46.92473 | 5.57717 | 33882 ft | 468 kts | 314° |
| 2026-05-06 11:49 | 46.97241 | 5.51226 | 33888 ft | 468 kts | 313° |
| 2026-05-06 11:50 | 47.01982 | 5.44685 | 33884 ft | 469 kts | 313° |
| 2026-05-06 11:50 | 47.06721 | 5.38115 | 33887 ft | 469 kts | 313° |
| 2026-05-06 11:51 | 47.11469 | 5.31523 | 33877 ft | 470 kts | 314° |
| 2026-05-06 11:51 | 47.16226 | 5.24901 | 33864 ft | 471 kts | 314° |
| 2026-05-06 11:52 | 47.20964 | 5.18290 | 33861 ft | 472 kts | 314° |
| 2026-05-06 11:52 | 47.25729 | 5.11626 | 33860 ft | 473 kts | 314° |
| 2026-05-06 11:53 | 47.30416 | 5.04815 | 33866 ft | 473 kts | 311° |
| 2026-05-06 11:53 | 47.34931 | 4.97753 | 33873 ft | 473 kts | 311° |
| 2026-05-06 11:54 | 47.39440 | 4.90711 | 33828 ft | 466 kts | 311° |
| 2026-05-06 11:54 | 47.41653 | 4.87286 | 33458 ft | 457 kts | 312° |
| 2026-05-06 11:54 | 47.43848 | 4.83891 | 32755 ft | 458 kts | 312° |
| 2026-05-06 11:55 | 47.46055 | 4.80473 | 31885 ft | 462 kts | 313° |
| 2026-05-06 11:55 | 47.48281 | 4.77018 | 31151 ft | 465 kts | 313° |
| 2026-05-06 11:55 | 47.50502 | 4.73566 | 30629 ft | 461 kts | 313° |
| 2026-05-06 11:55 | 47.52652 | 4.70086 | 30230 ft | 455 kts | 308° |
| 2026-05-06 11:56 | 47.54529 | 4.66413 | 29755 ft | 451 kts | 305° |
| 2026-05-06 11:56 | 47.56354 | 4.62588 | 29176 ft | 447 kts | 304° |
| 2026-05-06 11:56 | 47.58090 | 4.58867 | 28677 ft | 442 kts | 303° |
| 2026-05-06 11:56 | 47.59848 | 4.55098 | 28219 ft | 436 kts | 304° |
| 2026-05-06 11:57 | 47.61555 | 4.51467 | 27728 ft | 432 kts | 304° |
| 2026-05-06 11:57 | 47.63275 | 4.47836 | 27202 ft | 429 kts | 304° |
| 2026-05-06 11:57 | 47.64989 | 4.44239 | 26727 ft | 425 kts | 304° |
| 2026-05-06 11:57 | 47.66690 | 4.40679 | 26263 ft | 421 kts | 305° |
| 2026-05-06 11:58 | 47.68377 | 4.37153 | 25792 ft | 417 kts | 305° |
| 2026-05-06 11:58 | 47.70050 | 4.33654 | 25345 ft | 414 kts | 305° |
| 2026-05-06 11:58 | 47.71710 | 4.30180 | 24921 ft | 411 kts | 305° |
| 2026-05-06 11:58 | 47.73354 | 4.26734 | 24504 ft | 408 kts | 305° |
| 2026-05-06 11:59 | 47.74989 | 4.23303 | 24056 ft | 405 kts | 305° |
| 2026-05-06 11:59 | 47.76606 | 4.19902 | 23633 ft | 402 kts | 306° |
| 2026-05-06 11:59 | 47.78217 | 4.16512 | 23031 ft | 401 kts | 306° |
| 2026-05-06 11:59 | 47.79823 | 4.13128 | 22505 ft | 399 kts | 306° |
| 2026-05-06 12:00 | 47.81414 | 4.09771 | 22055 ft | 395 kts | 306° |
| 2026-05-06 12:00 | 47.82986 | 4.06451 | 21591 ft | 391 kts | 306° |
| 2026-05-06 12:00 | 47.84549 | 4.03144 | 21151 ft | 389 kts | 306° |
| 2026-05-06 12:00 | 47.86103 | 3.99859 | 20751 ft | 387 kts | 306° |
| 2026-05-06 12:01 | 47.87645 | 3.96596 | 20355 ft | 384 kts | 306° |
| 2026-05-06 12:01 | 47.89176 | 3.93340 | 19925 ft | 382 kts | 306° |
| 2026-05-06 12:01 | 47.90673 | 3.90155 | 19500 ft | 379 kts | 306° |
| 2026-05-06 12:01 | 47.92176 | 3.86954 | 19113 ft | 374 kts | 306° |
| 2026-05-06 12:02 | 47.93660 | 3.83792 | 18717 ft | 371 kts | 306° |
| 2026-05-06 12:02 | 47.95133 | 3.80650 | 18394 ft | 368 kts | 305° |
| 2026-05-06 12:02 | 47.96589 | 3.77538 | 18091 ft | 363 kts | 305° |
| 2026-05-06 12:02 | 47.98028 | 3.74464 | 17655 ft | 360 kts | 305° |
| 2026-05-06 12:03 | 47.99454 | 3.71413 | 17240 ft | 357 kts | 305° |
| 2026-05-06 12:03 | 48.00867 | 3.68387 | 16829 ft | 353 kts | 305° |
| 2026-05-06 12:03 | 48.02263 | 3.65393 | 16398 ft | 350 kts | 305° |
| 2026-05-06 12:03 | 48.03650 | 3.62414 | 15935 ft | 348 kts | 305° |
| 2026-05-06 12:04 | 48.04564 | 3.60451 | 15663 ft | 346 kts | 304° |
| 2026-05-06 12:04 | 48.05930 | 3.57512 | 15350 ft | 342 kts | 304° |
| 2026-05-06 12:04 | 48.07278 | 3.54609 | 14977 ft | 338 kts | 304° |
| 2026-05-06 12:04 | 48.08618 | 3.51722 | 14503 ft | 338 kts | 304° |
| 2026-05-06 12:05 | 48.09948 | 3.48852 | 14151 ft | 333 kts | 304° |
| 2026-05-06 12:05 | 48.11257 | 3.46023 | 13857 ft | 327 kts | 304° |
| 2026-05-06 12:05 | 48.12542 | 3.43245 | 13559 ft | 323 kts | 304° |
| 2026-05-06 12:05 | 48.13817 | 3.40485 | 13261 ft | 321 kts | 304° |
| 2026-05-06 12:06 | 48.15084 | 3.37739 | 12984 ft | 319 kts | 304° |
| 2026-05-06 12:06 | 48.16341 | 3.35014 | 12729 ft | 317 kts | 304° |
| 2026-05-06 12:06 | 48.17596 | 3.32290 | 12430 ft | 319 kts | 304° |
| 2026-05-06 12:06 | 48.18860 | 3.29543 | 12167 ft | 320 kts | 304° |
| 2026-05-06 12:07 | 48.20120 | 3.26800 | 11898 ft | 320 kts | 304° |
| 2026-05-06 12:07 | 48.21375 | 3.24067 | 11726 ft | 316 kts | 304° |
| 2026-05-06 12:07 | 48.22621 | 3.21350 | 11467 ft | 316 kts | 304° |
| 2026-05-06 12:07 | 48.23868 | 3.18629 | 11208 ft | 317 kts | 304° |
| 2026-05-06 12:08 | 48.25112 | 3.15912 | 10945 ft | 315 kts | 304° |
| 2026-05-06 12:08 | 48.26313 | 3.13197 | 10681 ft | 310 kts | 301° |
| 2026-05-06 12:08 | 48.27435 | 3.10451 | 10433 ft | 308 kts | 300° |
| 2026-05-06 12:08 | 48.28534 | 3.07701 | 10222 ft | 308 kts | 300° |
| 2026-05-06 12:09 | 48.29666 | 3.04861 | 10031 ft | 325 kts | 300° |
| 2026-05-06 12:09 | 48.30849 | 3.01903 | 9809 ft | 332 kts | 300° |
| 2026-05-06 12:09 | 48.32042 | 2.98932 | 9555 ft | 332 kts | 300° |
| 2026-05-06 12:09 | 48.33233 | 2.95970 | 9310 ft | 331 kts | 301° |
| 2026-05-06 12:10 | 48.34407 | 2.93054 | 9070 ft | 330 kts | 301° |
| 2026-05-06 12:10 | 48.35594 | 2.90107 | 8838 ft | 330 kts | 301° |
| 2026-05-06 12:10 | 48.36782 | 2.87155 | 8591 ft | 329 kts | 301° |
| 2026-05-06 12:10 | 48.37967 | 2.84209 | 8358 ft | 328 kts | 301° |
| 2026-05-06 12:11 | 48.39129 | 2.81258 | 8125 ft | 328 kts | 297° |
| 2026-05-06 12:11 | 48.39951 | 2.78065 | 7894 ft | 327 kts | 288° |
| 2026-05-06 12:11 | 48.40617 | 2.74795 | 7673 ft | 326 kts | 288° |
| 2026-05-06 12:11 | 48.41241 | 2.71511 | 7444 ft | 326 kts | 287° |
| 2026-05-06 12:12 | 48.41842 | 2.68227 | 7222 ft | 325 kts | 287° |
| 2026-05-06 12:12 | 48.42433 | 2.64947 | 6993 ft | 325 kts | 287° |
| 2026-05-06 12:12 | 48.43019 | 2.61669 | 6777 ft | 324 kts | 287° |
| 2026-05-06 12:12 | 48.43596 | 2.58390 | 6549 ft | 324 kts | 288° |
| 2026-05-06 12:13 | 48.44158 | 2.55113 | 6330 ft | 323 kts | 287° |
| 2026-05-06 12:13 | 48.44706 | 2.51836 | 6096 ft | 322 kts | 287° |
| 2026-05-06 12:13 | 48.45249 | 2.48561 | 5850 ft | 322 kts | 287° |
| 2026-05-06 12:13 | 48.45784 | 2.45296 | 5627 ft | 321 kts | 287° |
| 2026-05-06 12:14 | 48.46316 | 2.42035 | 5385 ft | 320 kts | 287° |
| 2026-05-06 12:14 | 48.46846 | 2.38784 | 5155 ft | 318 kts | 287° |
| 2026-05-06 12:14 | 48.47370 | 2.35588 | 4970 ft | 319 kts | 287° |
| 2026-05-06 12:14 | 48.47901 | 2.32346 | 4701 ft | 318 kts | 287° |
| 2026-05-06 12:15 | 48.48425 | 2.29125 | 4460 ft | 315 kts | 287° |
| 2026-05-06 12:15 | 48.48942 | 2.25922 | 4230 ft | 314 kts | 287° |
| 2026-05-06 12:15 | 48.49456 | 2.22740 | 4073 ft | 312 kts | 287° |
| 2026-05-06 12:15 | 48.49965 | 2.19591 | 4015 ft | 302 kts | 287° |
| 2026-05-06 12:16 | 48.50528 | 2.16642 | 4021 ft | 283 kts | 294° |
| 2026-05-06 12:16 | 48.51249 | 2.13970 | 4009 ft | 267 kts | 296° |
| 2026-05-06 12:16 | 48.51956 | 2.11459 | 4005 ft | 254 kts | 296° |
| 2026-05-06 12:16 | 48.52622 | 2.09079 | 4014 ft | 240 kts | 297° |
| 2026-05-06 12:17 | 48.53248 | 2.06813 | 4014 ft | 226 kts | 300° |
| 2026-05-06 12:17 | 48.54217 | 2.05111 | 4047 ft | 211 kts | 333° |
| 2026-05-06 12:17 | 48.55575 | 2.04340 | 4050 ft | 209 kts | 342° |
| 2026-05-06 12:17 | 48.56938 | 2.03522 | 4040 ft | 211 kts | 339° |
| 2026-05-06 12:18 | 48.58263 | 2.02628 | 4012 ft | 205 kts | 338° |
| 2026-05-06 12:18 | 48.59520 | 2.01777 | 4008 ft | 192 kts | 343° |
| 2026-05-06 12:18 | 48.60820 | 2.01693 | 4019 ft | 187 kts | 19° |
| 2026-05-06 12:18 | 48.61736 | 2.02983 | 4036 ft | 187 kts | 60° |
| 2026-05-06 12:19 | 48.62324 | 2.04746 | 4032 ft | 187 kts | 48° |
| 2026-05-06 12:19 | 48.63115 | 2.06260 | 4014 ft | 185 kts | 57° |
| 2026-05-06 12:19 | 48.63645 | 2.08055 | 3788 ft | 187 kts | 61° |
| 2026-05-06 12:19 | 48.64246 | 2.09778 | 3543 ft | 183 kts | 56° |
| 2026-05-06 12:20 | 48.64848 | 2.11440 | 3298 ft | 177 kts | 57° |
| 2026-05-06 12:20 | 48.65423 | 2.13061 | 3068 ft | 173 kts | 58° |
| 2026-05-06 12:20 | 48.65980 | 2.14648 | 2842 ft | 168 kts | 57° |
| 2026-05-06 12:20 | 48.66532 | 2.16215 | 2627 ft | 169 kts | 57° |
| 2026-05-06 12:21 | 48.67090 | 2.17798 | 2418 ft | 172 kts | 58° |
| 2026-05-06 12:21 | 48.67642 | 2.19366 | 2177 ft | 166 kts | 58° |
| 2026-05-06 12:21 | 48.68184 | 2.20903 | 1945 ft | 168 kts | 58° |
| 2026-05-06 12:21 | 48.68733 | 2.22458 | 1781 ft | 164 kts | 58° |
| 2026-05-06 12:22 | 48.69260 | 2.23956 | 1487 ft | 158 kts | 56° |
| 2026-05-06 12:22 | 48.69759 | 2.25368 | 1319 ft | 150 kts | 57° |
| 2026-05-06 12:22 | 48.70268 | 2.26822 | 1140 ft | 160 kts | 59° |
| 2026-05-06 12:22 | 48.70777 | 2.28308 | 899 ft | 155 kts | 55° |
| 2026-05-06 12:23 | 48.71274 | 2.29693 | 652 ft | 146 kts | 55° |
| 2026-05-06 12:23 | 48.71751 | 2.31014 | 449 ft | 144 kts | 56° |
| 2026-05-06 12:23 | 48.72224 | 2.32334 | 317 ft | 139 kts | 57° |
| 2026-05-06 12:23 | 48.72639 | 2.33499 | 295 ft | 104 kts | 59° |
| 2026-05-06 12:24 | 48.72882 | 2.34176 | 292 ft | 42 kts | 61° |
| 2026-05-06 12:24 | 48.72966 | 2.34423 | 294 ft | 23 kts | 72° |
| 2026-05-06 12:24 | 48.73003 | 2.34673 | 291 ft | 24 kts | 83° |
| 2026-05-06 12:24 | 48.73024 | 2.34918 | 294 ft | 23 kts | 81° |
| 2026-05-06 12:25 | 48.73037 | 2.35151 | 292 ft | 22 kts | 101° |
| 2026-05-06 12:25 | 48.72943 | 2.35310 | 293 ft | 19 kts | 150° |
| 2026-05-06 12:25 | 48.72851 | 2.35434 | 292 ft | 18 kts | 162° |
| 2026-05-06 12:25 | 48.72734 | 2.35487 | 296 ft | 17 kts | 163° |
| 2026-05-06 12:26 | 48.72619 | 2.35529 | 292 ft | 17 kts | 167° |
| 2026-05-06 12:26 | 48.72601 | 2.35601 | 292 ft | 7 kts | 73° |
| 2026-05-06 12:26 | 48.72638 | 2.35645 | 293 ft | 7 kts | 4° |
| 2026-05-06 12:26 | 48.72679 | 2.35662 | 294 ft | 6 kts | 64° |
| 2026-05-06 12:27 | 48.72683 | 2.35717 | 292 ft | 4 kts | 82° |
| 2026-05-06 12:27 | 48.72684 | 2.35729 | 292 ft | 0 kts | 82° |